HLE07 EGSR-EGSR
Flight info
| Callsign | HLE07 |
|---|---|
| Flight time | 2h 22m |
| Altitude | 1500 |
| Route | VFR HEMS |
| Aircraft | A169/L-V/N |
Departure
| Time | 2026-04-22 14:44 |
|---|---|
| Airport | Earls Colne Airfield (EGSR) |
Arrival
| Time | 2026-04-22 17:06 |
|---|---|
| Airport | Earls Colne Airfield (EGSR) |
| Time | Latitude | Longitude | Altitude | Speed | Heading |
|---|---|---|---|---|---|
| 2026-04-22 14:43 | 51.91187 | 0.67675 | 229 ft | 0 kts | 210° |
| 2026-04-22 14:43 | 51.91189 | 0.67651 | 253 ft | 5 kts | 324° |
| 2026-04-22 14:43 | 51.91280 | 0.67814 | 371 ft | 56 kts | 63° |
| 2026-04-22 14:44 | 51.91398 | 0.68610 | 776 ft | 81 kts | 97° |
| 2026-04-22 14:44 | 51.91084 | 0.69407 | 1114 ft | 85 kts | 120° |
| 2026-04-22 14:44 | 51.90710 | 0.70130 | 1377 ft | 85 kts | 121° |
| 2026-04-22 14:44 | 51.90324 | 0.70863 | 1621 ft | 85 kts | 120° |
| 2026-04-22 14:45 | 51.89944 | 0.71578 | 1869 ft | 85 kts | 120° |
| 2026-04-22 14:45 | 51.89554 | 0.72300 | 1948 ft | 96 kts | 120° |
| 2026-04-22 14:45 | 51.89190 | 0.73369 | 1986 ft | 115 kts | 109° |
| 2026-04-22 14:45 | 51.88802 | 0.74602 | 1954 ft | 129 kts | 110° |
| 2026-04-22 14:46 | 51.88438 | 0.75940 | 2014 ft | 131 kts | 107° |
| 2026-04-22 14:46 | 51.88226 | 0.76714 | 2041 ft | 130 kts | 107° |
| 2026-04-22 14:47 | 51.88015 | 0.77480 | 2042 ft | 130 kts | 107° |
| 2026-04-22 14:47 | 51.87489 | 0.78699 | 1996 ft | 142 kts | 134° |
| 2026-04-22 14:47 | 51.86626 | 0.79471 | 2045 ft | 141 kts | 141° |
| 2026-04-22 14:48 | 51.85762 | 0.80208 | 2018 ft | 141 kts | 141° |
| 2026-04-22 14:48 | 51.84892 | 0.80956 | 2000 ft | 142 kts | 141° |
| 2026-04-22 14:48 | 51.84015 | 0.81728 | 1993 ft | 141 kts | 140° |
| 2026-04-22 14:48 | 51.83155 | 0.82504 | 2000 ft | 141 kts | 140° |
| 2026-04-22 14:49 | 51.82295 | 0.83277 | 2002 ft | 142 kts | 140° |
| 2026-04-22 14:49 | 51.81435 | 0.84050 | 2013 ft | 141 kts | 140° |
| 2026-04-22 14:49 | 51.80576 | 0.84819 | 2013 ft | 141 kts | 140° |
| 2026-04-22 14:49 | 51.79718 | 0.85589 | 2016 ft | 141 kts | 141° |
| 2026-04-22 14:50 | 51.78861 | 0.86353 | 2022 ft | 141 kts | 140° |
| 2026-04-22 14:50 | 51.77994 | 0.87121 | 2017 ft | 141 kts | 140° |
| 2026-04-22 14:50 | 51.77134 | 0.87880 | 2008 ft | 141 kts | 140° |
| 2026-04-22 14:50 | 51.76278 | 0.88638 | 2003 ft | 141 kts | 140° |
| 2026-04-22 14:51 | 51.75404 | 0.89406 | 1996 ft | 142 kts | 140° |
| 2026-04-22 14:51 | 51.74546 | 0.90163 | 2004 ft | 142 kts | 140° |
| 2026-04-22 14:51 | 51.73679 | 0.90922 | 2017 ft | 140 kts | 140° |
| 2026-04-22 14:51 | 51.72822 | 0.91674 | 2012 ft | 141 kts | 140° |
| 2026-04-22 14:52 | 51.72189 | 0.92228 | 2007 ft | 141 kts | 140° |
| 2026-04-22 14:52 | 51.71337 | 0.92974 | 1995 ft | 142 kts | 141° |
| 2026-04-22 14:53 | 51.70305 | 0.93158 | 1979 ft | 162 kts | 182° |
| 2026-04-22 14:53 | 51.69276 | 0.92422 | 2038 ft | 162 kts | 195° |
| 2026-04-22 14:53 | 51.68247 | 0.91618 | 1985 ft | 164 kts | 195° |
| 2026-04-22 14:53 | 51.67265 | 0.90835 | 2076 ft | 149 kts | 194° |
| 2026-04-22 14:54 | 51.66417 | 0.89985 | 1960 ft | 145 kts | 210° |
| 2026-04-22 14:54 | 51.65758 | 0.88781 | 1959 ft | 143 kts | 223° |
| 2026-04-22 14:54 | 51.65174 | 0.87490 | 1958 ft | 143 kts | 225° |
| 2026-04-22 14:54 | 51.64599 | 0.86191 | 1986 ft | 141 kts | 226° |
| 2026-04-22 14:55 | 51.64066 | 0.84969 | 2048 ft | 127 kts | 222° |
| 2026-04-22 14:55 | 51.63555 | 0.83839 | 1976 ft | 124 kts | 221° |
| 2026-04-22 14:55 | 51.63047 | 0.82721 | 1861 ft | 124 kts | 221° |
| 2026-04-22 14:55 | 51.62535 | 0.81585 | 1728 ft | 125 kts | 222° |
| 2026-04-22 14:56 | 51.62033 | 0.80463 | 1580 ft | 123 kts | 221° |
| 2026-04-22 14:56 | 51.61530 | 0.79349 | 1420 ft | 123 kts | 223° |
| 2026-04-22 14:56 | 51.61029 | 0.78222 | 1266 ft | 122 kts | 223° |
| 2026-04-22 14:56 | 51.60529 | 0.77114 | 1101 ft | 123 kts | 224° |
| 2026-04-22 14:57 | 51.60035 | 0.76008 | 943 ft | 122 kts | 224° |
| 2026-04-22 14:57 | 51.59540 | 0.74890 | 782 ft | 120 kts | 224° |
| 2026-04-22 14:57 | 51.59051 | 0.73823 | 621 ft | 120 kts | 226° |
| 2026-04-22 14:57 | 51.58566 | 0.72726 | 460 ft | 119 kts | 225° |
| 2026-04-22 14:58 | 51.58088 | 0.71662 | 307 ft | 110 kts | 225° |
| 2026-04-22 14:58 | 51.57667 | 0.70736 | 292 ft | 98 kts | 231° |
| 2026-04-22 14:58 | 51.57272 | 0.69852 | 454 ft | 97 kts | 235° |
| 2026-04-22 14:58 | 51.56873 | 0.68975 | 629 ft | 100 kts | 231° |
| 2026-04-22 14:59 | 51.56438 | 0.68052 | 781 ft | 105 kts | 229° |
| 2026-04-22 14:59 | 51.55944 | 0.67041 | 771 ft | 137 kts | 231° |
| 2026-04-22 14:59 | 51.55695 | 0.65434 | 967 ft | 157 kts | 280° |
| 2026-04-22 14:59 | 51.56142 | 0.64127 | 1525 ft | 121 kts | 324° |
| 2026-04-22 15:00 | 51.56847 | 0.63610 | 1620 ft | 116 kts | 5° |
| 2026-04-22 15:00 | 51.57072 | 0.63630 | 1646 ft | 117 kts | 18° |
| 2026-04-22 15:00 | 51.57844 | 0.63935 | 1849 ft | 125 kts | 28° |
| 2026-04-22 15:01 | 51.58685 | 0.64332 | 2032 ft | 126 kts | 26° |
| 2026-04-22 15:01 | 51.59549 | 0.64812 | 1941 ft | 137 kts | 26° |
| 2026-04-22 15:01 | 51.60465 | 0.65327 | 1974 ft | 141 kts | 26° |
| 2026-04-22 15:01 | 51.61393 | 0.65858 | 2018 ft | 141 kts | 26° |
| 2026-04-22 15:02 | 51.62325 | 0.66394 | 2034 ft | 140 kts | 26° |
| 2026-04-22 15:02 | 51.63235 | 0.66924 | 2016 ft | 140 kts | 26° |
| 2026-04-22 15:02 | 51.64150 | 0.67476 | 1991 ft | 139 kts | 31° |
| 2026-04-22 15:02 | 51.64713 | 0.68609 | 1996 ft | 130 kts | 72° |
| 2026-04-22 15:03 | 51.64932 | 0.69986 | 2014 ft | 127 kts | 75° |
| 2026-04-22 15:03 | 51.65150 | 0.71387 | 1985 ft | 128 kts | 75° |
| 2026-04-22 15:03 | 51.65362 | 0.72779 | 1976 ft | 128 kts | 75° |
| 2026-04-22 15:03 | 51.65786 | 0.74026 | 2008 ft | 132 kts | 49° |
| 2026-04-22 15:04 | 51.66418 | 0.75005 | 2002 ft | 132 kts | 47° |
| 2026-04-22 15:04 | 51.67085 | 0.76019 | 1997 ft | 134 kts | 47° |
| 2026-04-22 15:04 | 51.67768 | 0.77026 | 2005 ft | 133 kts | 46° |
| 2026-04-22 15:04 | 51.68456 | 0.78020 | 2004 ft | 133 kts | 46° |
| 2026-04-22 15:05 | 51.69150 | 0.79029 | 2005 ft | 133 kts | 46° |
| 2026-04-22 15:05 | 51.69833 | 0.80026 | 2003 ft | 133 kts | 46° |
| 2026-04-22 15:05 | 51.70513 | 0.81020 | 2001 ft | 133 kts | 46° |
| 2026-04-22 15:05 | 51.71138 | 0.82125 | 1965 ft | 131 kts | 66° |
| 2026-04-22 15:06 | 51.71110 | 0.83545 | 2023 ft | 131 kts | 106° |
| 2026-04-22 15:06 | 51.70694 | 0.84836 | 2038 ft | 130 kts | 111° |
| 2026-04-22 15:06 | 51.70256 | 0.86113 | 2007 ft | 131 kts | 111° |
| 2026-04-22 15:06 | 51.69812 | 0.87412 | 1997 ft | 131 kts | 111° |
| 2026-04-22 15:07 | 51.69374 | 0.88694 | 1994 ft | 132 kts | 111° |
| 2026-04-22 15:07 | 51.68858 | 0.89925 | 1966 ft | 140 kts | 130° |
| 2026-04-22 15:07 | 51.67885 | 0.90370 | 2010 ft | 156 kts | 172° |
| 2026-04-22 15:07 | 51.66847 | 0.90128 | 2041 ft | 147 kts | 175° |
| 2026-04-22 15:08 | 51.65883 | 0.89436 | 1957 ft | 161 kts | 212° |
| 2026-04-22 15:08 | 51.65246 | 0.87951 | 2102 ft | 153 kts | 231° |
| 2026-04-22 15:08 | 51.64744 | 0.86610 | 2008 ft | 130 kts | 223° |
| 2026-04-22 15:08 | 51.64251 | 0.85458 | 1915 ft | 124 kts | 223° |
| 2026-04-22 15:09 | 51.63753 | 0.84327 | 1927 ft | 124 kts | 225° |
| 2026-04-22 15:09 | 51.63251 | 0.83189 | 2003 ft | 124 kts | 222° |
| 2026-04-22 15:09 | 51.62750 | 0.82055 | 1838 ft | 125 kts | 221° |
| 2026-04-22 15:09 | 51.62241 | 0.80929 | 1676 ft | 125 kts | 221° |
| 2026-04-22 15:10 | 51.61734 | 0.79801 | 1506 ft | 124 kts | 222° |
| 2026-04-22 15:10 | 51.61230 | 0.78672 | 1346 ft | 123 kts | 222° |
| 2026-04-22 15:10 | 51.60737 | 0.77581 | 1170 ft | 121 kts | 223° |
| 2026-04-22 15:10 | 51.60243 | 0.76479 | 1010 ft | 122 kts | 225° |
| 2026-04-22 15:11 | 51.59755 | 0.75375 | 852 ft | 120 kts | 225° |
| 2026-04-22 15:11 | 51.59264 | 0.74285 | 692 ft | 120 kts | 225° |
| 2026-04-22 15:11 | 51.58779 | 0.73200 | 531 ft | 119 kts | 226° |
| 2026-04-22 15:11 | 51.58300 | 0.72134 | 373 ft | 118 kts | 225° |
| 2026-04-22 15:12 | 51.57814 | 0.71054 | 215 ft | 118 kts | 227° |
| 2026-04-22 15:12 | 51.57338 | 0.70000 | 108 ft | 116 kts | 226° |
| 2026-04-22 15:12 | 51.57017 | 0.68809 | 254 ft | 117 kts | 266° |
| 2026-04-22 15:12 | 51.57147 | 0.67566 | 505 ft | 113 kts | 290° |
| 2026-04-22 15:13 | 51.57349 | 0.66340 | 754 ft | 115 kts | 291° |
| 2026-04-22 15:13 | 51.57545 | 0.65085 | 999 ft | 117 kts | 290° |
| 2026-04-22 15:13 | 51.57753 | 0.63816 | 1246 ft | 120 kts | 291° |
| 2026-04-22 15:13 | 51.57969 | 0.62503 | 1502 ft | 121 kts | 290° |
| 2026-04-22 15:14 | 51.58192 | 0.61176 | 1747 ft | 124 kts | 290° |
| 2026-04-22 15:14 | 51.58421 | 0.59844 | 1993 ft | 125 kts | 290° |
| 2026-04-22 15:14 | 51.58688 | 0.58361 | 1917 ft | 153 kts | 290° |
| 2026-04-22 15:14 | 51.59008 | 0.56642 | 1941 ft | 168 kts | 291° |
| 2026-04-22 15:15 | 51.59370 | 0.54811 | 1972 ft | 176 kts | 290° |
| 2026-04-22 15:15 | 51.59754 | 0.52937 | 2020 ft | 176 kts | 290° |
| 2026-04-22 15:15 | 51.60137 | 0.51087 | 2035 ft | 176 kts | 290° |
| 2026-04-22 15:15 | 51.60527 | 0.49211 | 2032 ft | 175 kts | 290° |
| 2026-04-22 15:16 | 51.60918 | 0.47334 | 2000 ft | 177 kts | 288° |
| 2026-04-22 15:16 | 51.61286 | 0.45445 | 1966 ft | 177 kts | 288° |
| 2026-04-22 15:16 | 51.61650 | 0.43587 | 1839 ft | 175 kts | 288° |
| 2026-04-22 15:16 | 51.62018 | 0.41719 | 1667 ft | 174 kts | 287° |
| 2026-04-22 15:17 | 51.62386 | 0.39876 | 1479 ft | 173 kts | 287° |
| 2026-04-22 15:17 | 51.62729 | 0.38016 | 1301 ft | 171 kts | 287° |
| 2026-04-22 15:17 | 51.63073 | 0.36186 | 1157 ft | 171 kts | 287° |
| 2026-04-22 15:17 | 51.63401 | 0.34366 | 1134 ft | 170 kts | 287° |
| 2026-04-22 15:18 | 51.63721 | 0.32524 | 1170 ft | 168 kts | 287° |
| 2026-04-22 15:18 | 51.64043 | 0.30685 | 1225 ft | 165 kts | 285° |
| 2026-04-22 15:18 | 51.64365 | 0.28946 | 1231 ft | 158 kts | 287° |
| 2026-04-22 15:18 | 51.64681 | 0.27265 | 1199 ft | 156 kts | 287° |
| 2026-04-22 15:19 | 51.64991 | 0.25580 | 1161 ft | 156 kts | 287° |
| 2026-04-22 15:19 | 51.65295 | 0.23885 | 1152 ft | 157 kts | 287° |
| 2026-04-22 15:19 | 51.65599 | 0.22204 | 1179 ft | 156 kts | 287° |
| 2026-04-22 15:19 | 51.65906 | 0.20543 | 1166 ft | 157 kts | 287° |
| 2026-04-22 15:20 | 51.66213 | 0.18857 | 1197 ft | 156 kts | 287° |
| 2026-04-22 15:20 | 51.66523 | 0.17178 | 1187 ft | 157 kts | 286° |
| 2026-04-22 15:20 | 51.66831 | 0.15483 | 1198 ft | 157 kts | 287° |
| 2026-04-22 15:20 | 51.67136 | 0.13778 | 1186 ft | 157 kts | 287° |
| 2026-04-22 15:21 | 51.67439 | 0.12094 | 1193 ft | 157 kts | 286° |
| 2026-04-22 15:21 | 51.67748 | 0.10397 | 1179 ft | 158 kts | 287° |
| 2026-04-22 15:21 | 51.68062 | 0.08693 | 1178 ft | 157 kts | 286° |
| 2026-04-22 15:21 | 51.68371 | 0.07015 | 1192 ft | 157 kts | 286° |
| 2026-04-22 15:22 | 51.68684 | 0.05303 | 1182 ft | 157 kts | 287° |
| 2026-04-22 15:22 | 51.68985 | 0.03622 | 1181 ft | 156 kts | 287° |
| 2026-04-22 15:22 | 51.69294 | 0.01931 | 1173 ft | 158 kts | 287° |
| 2026-04-22 15:22 | 51.69603 | 0.00250 | 1182 ft | 158 kts | 287° |
| 2026-04-22 15:23 | 51.69917 | -0.01452 | 1189 ft | 158 kts | 287° |
| 2026-04-22 15:23 | 51.70229 | -0.03153 | 1196 ft | 157 kts | 286° |
| 2026-04-22 15:23 | 51.70542 | -0.04848 | 1179 ft | 158 kts | 287° |
| 2026-04-22 15:23 | 51.70858 | -0.06556 | 1185 ft | 158 kts | 287° |
| 2026-04-22 15:24 | 51.71172 | -0.08244 | 1196 ft | 157 kts | 287° |
| 2026-04-22 15:24 | 51.71476 | -0.09946 | 1187 ft | 157 kts | 286° |
| 2026-04-22 15:24 | 51.71768 | -0.11624 | 1173 ft | 157 kts | 285° |
| 2026-04-22 15:24 | 51.72063 | -0.13313 | 1188 ft | 156 kts | 286° |
| 2026-04-22 15:25 | 51.72362 | -0.15008 | 1183 ft | 157 kts | 285° |
| 2026-04-22 15:25 | 51.72659 | -0.16695 | 1167 ft | 158 kts | 286° |
| 2026-04-22 15:25 | 51.72960 | -0.18407 | 1170 ft | 157 kts | 285° |
| 2026-04-22 15:25 | 51.73254 | -0.20092 | 1175 ft | 157 kts | 285° |
| 2026-04-22 15:26 | 51.73552 | -0.21794 | 1180 ft | 157 kts | 286° |
| 2026-04-22 15:26 | 51.73848 | -0.23486 | 1184 ft | 156 kts | 286° |
| 2026-04-22 15:26 | 51.74144 | -0.25174 | 1182 ft | 156 kts | 286° |
| 2026-04-22 15:26 | 51.74441 | -0.26864 | 1183 ft | 157 kts | 286° |
| 2026-04-22 15:27 | 51.74736 | -0.28541 | 1180 ft | 157 kts | 285° |
| 2026-04-22 15:27 | 51.75036 | -0.30263 | 1186 ft | 157 kts | 286° |
| 2026-04-22 15:27 | 51.75327 | -0.31936 | 1194 ft | 156 kts | 286° |
| 2026-04-22 15:27 | 51.75625 | -0.33638 | 1194 ft | 156 kts | 285° |
| 2026-04-22 15:28 | 51.75928 | -0.35308 | 1060 ft | 156 kts | 285° |
| 2026-04-22 15:28 | 51.76238 | -0.37002 | 973 ft | 156 kts | 286° |
| 2026-04-22 15:28 | 51.76524 | -0.38684 | 975 ft | 155 kts | 283° |
| 2026-04-22 15:28 | 51.76765 | -0.40376 | 985 ft | 155 kts | 283° |
| 2026-04-22 15:29 | 51.77010 | -0.42079 | 997 ft | 155 kts | 283° |
| 2026-04-22 15:29 | 51.77244 | -0.43687 | 1170 ft | 129 kts | 281° |
| 2026-04-22 15:29 | 51.77459 | -0.44877 | 1071 ft | 98 kts | 282° |
| 2026-04-22 15:30 | 51.77767 | -0.46858 | 944 ft | 89 kts | 280° |
| 2026-04-22 15:30 | 51.77877 | -0.47840 | 972 ft | 89 kts | 281° |
| 2026-04-22 15:30 | 51.77997 | -0.48833 | 1002 ft | 90 kts | 282° |
| 2026-04-22 15:30 | 51.78142 | -0.49833 | 972 ft | 93 kts | 287° |
| 2026-04-22 15:31 | 51.78377 | -0.50792 | 793 ft | 91 kts | 304° |
| 2026-04-22 15:31 | 51.78836 | -0.50800 | 580 ft | 67 kts | 64° |
| 2026-04-22 15:31 | 51.78642 | -0.50224 | 469 ft | 41 kts | 116° |
| 2026-04-22 15:31 | 51.78558 | -0.50079 | 389 ft | 5 kts | 138° |
| 2026-04-22 15:32 | 51.78551 | -0.50062 | 389 ft | 2 kts | 125° |
| 2026-04-22 15:32 | 51.78542 | -0.50073 | 377 ft | 0 kts | 109° |
| 2026-04-22 15:32 | 51.78540 | -0.50074 | 376 ft | 0 kts | 106° |
| 2026-04-22 15:32 | 51.78536 | -0.50074 | 375 ft | 0 kts | 109° |
| 2026-04-22 15:57 | 51.78546 | -0.50071 | 424 ft | 12 kts | 116° |
| 2026-04-22 15:57 | 51.78587 | -0.50132 | 665 ft | 9 kts | 110° |
| 2026-04-22 15:57 | 51.78445 | -0.49785 | 843 ft | 77 kts | 136° |
| 2026-04-22 15:58 | 51.77866 | -0.49657 | 1218 ft | 87 kts | 167° |
| 2026-04-22 15:58 | 51.77252 | -0.49916 | 1022 ft | 109 kts | 182° |
| 2026-04-22 15:58 | 51.76363 | -0.50015 | 1172 ft | 136 kts | 176° |
| 2026-04-22 15:58 | 51.75391 | -0.50216 | 1122 ft | 148 kts | 178° |
| 2026-04-22 15:59 | 51.74340 | -0.50396 | 1190 ft | 154 kts | 177° |
| 2026-04-22 15:59 | 51.73275 | -0.50583 | 1247 ft | 151 kts | 172° |
| 2026-04-22 15:59 | 51.72232 | -0.50456 | 1228 ft | 150 kts | 164° |
| 2026-04-22 15:59 | 51.71198 | -0.50301 | 1235 ft | 149 kts | 164° |
| 2026-04-22 16:00 | 51.70150 | -0.50150 | 1221 ft | 149 kts | 164° |
| 2026-04-22 16:00 | 51.69119 | -0.49986 | 1202 ft | 149 kts | 163° |
| 2026-04-22 16:00 | 51.68086 | -0.49812 | 1196 ft | 149 kts | 163° |
| 2026-04-22 16:00 | 51.67056 | -0.49636 | 1199 ft | 149 kts | 163° |
| 2026-04-22 16:01 | 51.66028 | -0.49450 | 1198 ft | 148 kts | 162° |
| 2026-04-22 16:01 | 51.65043 | -0.49281 | 1291 ft | 131 kts | 160° |
| 2026-04-22 16:01 | 51.64173 | -0.49277 | 1159 ft | 124 kts | 168° |
| 2026-04-22 16:01 | 51.63319 | -0.49499 | 1042 ft | 124 kts | 188° |
| 2026-04-22 16:02 | 51.62494 | -0.49768 | 943 ft | 119 kts | 174° |
| 2026-04-22 16:02 | 51.61683 | -0.50006 | 826 ft | 119 kts | 180° |
| 2026-04-22 16:02 | 51.60916 | -0.50388 | 735 ft | 106 kts | 174° |
| 2026-04-22 16:02 | 51.60352 | -0.50046 | 659 ft | 70 kts | 109° |
| 2026-04-22 16:03 | 51.60380 | -0.49434 | 596 ft | 49 kts | 63° |
| 2026-04-22 16:03 | 51.60547 | -0.48996 | 491 ft | 42 kts | 63° |
| 2026-04-22 16:03 | 51.60669 | -0.48659 | 402 ft | 29 kts | 61° |
| 2026-04-22 16:03 | 51.60726 | -0.48492 | 310 ft | 9 kts | 76° |
| 2026-04-22 16:04 | 51.60734 | -0.48459 | 288 ft | 0 kts | 155° |
| 2026-04-22 16:04 | 51.60735 | -0.48458 | 288 ft | 0 kts | 171° |
| 2026-04-22 16:17 | 51.60733 | -0.48494 | 375 ft | 12 kts | 69° |
| 2026-04-22 16:17 | 51.60733 | -0.48523 | 561 ft | 33 kts | 70° |
| 2026-04-22 16:17 | 51.61059 | -0.47948 | 667 ft | 108 kts | 45° |
| 2026-04-22 16:18 | 51.61913 | -0.48259 | 983 ft | 155 kts | 324° |
| 2026-04-22 16:18 | 51.62705 | -0.49484 | 1165 ft | 159 kts | 330° |
| 2026-04-22 16:18 | 51.63545 | -0.49268 | 1229 ft | 129 kts | 66° |
| 2026-04-22 16:18 | 51.64056 | -0.48109 | 1140 ft | 130 kts | 52° |
| 2026-04-22 16:19 | 51.64663 | -0.47029 | 1161 ft | 132 kts | 52° |
| 2026-04-22 16:19 | 51.65255 | -0.45897 | 1175 ft | 131 kts | 55° |
| 2026-04-22 16:19 | 51.65812 | -0.44725 | 1192 ft | 131 kts | 56° |
| 2026-04-22 16:19 | 51.66367 | -0.43553 | 1203 ft | 132 kts | 56° |
| 2026-04-22 16:20 | 51.66921 | -0.42365 | 1210 ft | 132 kts | 56° |
| 2026-04-22 16:20 | 51.67474 | -0.41176 | 1200 ft | 133 kts | 56° |
| 2026-04-22 16:20 | 51.68028 | -0.39977 | 1220 ft | 132 kts | 56° |
| 2026-04-22 16:20 | 51.68580 | -0.38793 | 1217 ft | 133 kts | 54° |
| 2026-04-22 16:21 | 51.69149 | -0.37610 | 1198 ft | 133 kts | 55° |
| 2026-04-22 16:21 | 51.69709 | -0.36440 | 1209 ft | 133 kts | 54° |
| 2026-04-22 16:21 | 51.70217 | -0.35198 | 1171 ft | 133 kts | 71° |
| 2026-04-22 16:21 | 51.70246 | -0.33735 | 1238 ft | 129 kts | 89° |
| 2026-04-22 16:22 | 51.70162 | -0.30841 | 1201 ft | 130 kts | 90° |
| 2026-04-22 16:22 | 51.70122 | -0.29390 | 1206 ft | 130 kts | 89° |
| 2026-04-22 16:22 | 51.70080 | -0.27946 | 1215 ft | 129 kts | 90° |
| 2026-04-22 16:23 | 51.69997 | -0.25057 | 1218 ft | 129 kts | 89° |
| 2026-04-22 16:23 | 51.70020 | -0.23608 | 1210 ft | 130 kts | 81° |
| 2026-04-22 16:23 | 51.70142 | -0.22171 | 1223 ft | 128 kts | 81° |
| 2026-04-22 16:24 | 51.70266 | -0.20745 | 1206 ft | 129 kts | 80° |
| 2026-04-22 16:24 | 51.70503 | -0.17874 | 1211 ft | 128 kts | 81° |
| 2026-04-22 16:24 | 51.70625 | -0.16458 | 1207 ft | 128 kts | 81° |
| 2026-04-22 16:25 | 51.70750 | -0.15027 | 1209 ft | 129 kts | 80° |
| 2026-04-22 16:25 | 51.70950 | -0.12154 | 1205 ft | 128 kts | 82° |
| 2026-04-22 16:25 | 51.71033 | -0.10729 | 1208 ft | 129 kts | 82° |
| 2026-04-22 16:26 | 51.71115 | -0.09295 | 1204 ft | 128 kts | 82° |
| 2026-04-22 16:26 | 51.71199 | -0.07862 | 1213 ft | 128 kts | 82° |
| 2026-04-22 16:26 | 51.71287 | -0.06434 | 1228 ft | 127 kts | 82° |
| 2026-04-22 16:26 | 51.71365 | -0.05005 | 1201 ft | 128 kts | 84° |
| 2026-04-22 16:27 | 51.71413 | -0.03565 | 1201 ft | 128 kts | 84° |
| 2026-04-22 16:27 | 51.71460 | -0.02128 | 1207 ft | 128 kts | 84° |
| 2026-04-22 16:27 | 51.71503 | -0.00704 | 1205 ft | 128 kts | 84° |
| 2026-04-22 16:27 | 51.71550 | 0.00730 | 1215 ft | 127 kts | 84° |
| 2026-04-22 16:28 | 51.71592 | 0.02159 | 1192 ft | 128 kts | 84° |
| 2026-04-22 16:28 | 51.71640 | 0.03604 | 1219 ft | 128 kts | 84° |
| 2026-04-22 16:28 | 51.71687 | 0.05029 | 1204 ft | 129 kts | 84° |
| 2026-04-22 16:28 | 51.71698 | 0.05362 | 1209 ft | 129 kts | 84° |
| 2026-04-22 16:29 | 51.71726 | 0.06227 | 1212 ft | 129 kts | 85° |
| 2026-04-22 16:29 | 51.71983 | 0.07602 | 1215 ft | 131 kts | 63° |
| 2026-04-22 16:29 | 51.72416 | 0.08887 | 1228 ft | 131 kts | 62° |
| 2026-04-22 16:30 | 51.72709 | 0.09751 | 1231 ft | 130 kts | 62° |
| 2026-04-22 16:30 | 51.73284 | 0.11468 | 1214 ft | 131 kts | 62° |
| 2026-04-22 16:30 | 51.73736 | 0.12725 | 1177 ft | 127 kts | 58° |
| 2026-04-22 16:30 | 51.74104 | 0.13970 | 926 ft | 122 kts | 76° |
| 2026-04-22 16:31 | 51.73968 | 0.15217 | 755 ft | 113 kts | 114° |
| 2026-04-22 16:31 | 51.73332 | 0.15892 | 535 ft | 109 kts | 179° |
| 2026-04-22 16:31 | 51.72657 | 0.15647 | 375 ft | 89 kts | 193° |
| 2026-04-22 16:31 | 51.72179 | 0.15440 | 351 ft | 54 kts | 195° |
| 2026-04-22 16:32 | 51.71921 | 0.15299 | 342 ft | 25 kts | 263° |
| 2026-04-22 16:32 | 51.71975 | 0.15092 | 331 ft | 23 kts | 308° |
| 2026-04-22 16:32 | 51.72037 | 0.14920 | 338 ft | 11 kts | 307° |
| 2026-04-22 16:32 | 51.72060 | 0.14794 | 332 ft | 4 kts | 200° |
| 2026-04-22 16:33 | 51.72055 | 0.14783 | 323 ft | 1 kts | 126° |
| 2026-04-22 16:33 | 51.72055 | 0.14784 | 322 ft | 0 kts | 124° |
| 2026-04-22 16:54 | 51.72057 | 0.14794 | 329 ft | 5 kts | 124° |
| 2026-04-22 16:54 | 51.71995 | 0.15042 | 356 ft | 48 kts | 116° |
| 2026-04-22 16:55 | 51.71565 | 0.15173 | 589 ft | 93 kts | 192° |
| 2026-04-22 16:55 | 51.70866 | 0.15180 | 764 ft | 111 kts | 143° |
| 2026-04-22 16:55 | 51.70696 | 0.16373 | 948 ft | 116 kts | 81° |
| 2026-04-22 16:55 | 51.71074 | 0.17506 | 1206 ft | 114 kts | 59° |
| 2026-04-22 16:56 | 51.71507 | 0.18663 | 1130 ft | 127 kts | 60° |
| 2026-04-22 16:56 | 51.71975 | 0.19926 | 1178 ft | 131 kts | 60° |
| 2026-04-22 16:56 | 51.72454 | 0.21181 | 1199 ft | 132 kts | 58° |
| 2026-04-22 16:56 | 51.72955 | 0.22424 | 1209 ft | 132 kts | 58° |
| 2026-04-22 16:57 | 51.73452 | 0.23664 | 1209 ft | 132 kts | 58° |
| 2026-04-22 16:57 | 51.73945 | 0.24903 | 1206 ft | 131 kts | 58° |
| 2026-04-22 16:57 | 51.74443 | 0.26139 | 1194 ft | 132 kts | 57° |
| 2026-04-22 16:57 | 51.74955 | 0.27376 | 1192 ft | 132 kts | 57° |
| 2026-04-22 16:58 | 51.75295 | 0.28195 | 1194 ft | 132 kts | 57° |
| 2026-04-22 16:58 | 51.75978 | 0.29843 | 1197 ft | 132 kts | 57° |
| 2026-04-22 16:58 | 51.76493 | 0.31083 | 1193 ft | 132 kts | 57° |
| 2026-04-22 16:58 | 51.77002 | 0.32306 | 1189 ft | 132 kts | 57° |
| 2026-04-22 16:59 | 51.77517 | 0.33542 | 1194 ft | 133 kts | 57° |
| 2026-04-22 16:59 | 51.78035 | 0.34784 | 1197 ft | 133 kts | 57° |
| 2026-04-22 16:59 | 51.78548 | 0.36029 | 1194 ft | 132 kts | 57° |
| 2026-04-22 16:59 | 51.79052 | 0.37279 | 1202 ft | 132 kts | 58° |
| 2026-04-22 17:00 | 51.79548 | 0.38531 | 1201 ft | 133 kts | 58° |
| 2026-04-22 17:00 | 51.80534 | 0.41033 | 1215 ft | 132 kts | 58° |
| 2026-04-22 17:00 | 51.81025 | 0.42278 | 1202 ft | 132 kts | 58° |
| 2026-04-22 17:01 | 51.81514 | 0.43530 | 1195 ft | 132 kts | 59° |
| 2026-04-22 17:01 | 51.82005 | 0.44780 | 1203 ft | 132 kts | 58° |
| 2026-04-22 17:01 | 51.82500 | 0.46042 | 1191 ft | 132 kts | 58° |
| 2026-04-22 17:01 | 51.82992 | 0.47285 | 1194 ft | 132 kts | 58° |
| 2026-04-22 17:02 | 51.83491 | 0.48541 | 1205 ft | 132 kts | 58° |
| 2026-04-22 17:02 | 51.83987 | 0.49795 | 1204 ft | 132 kts | 58° |
| 2026-04-22 17:02 | 51.84484 | 0.51049 | 1196 ft | 132 kts | 57° |
| 2026-04-22 17:02 | 51.84989 | 0.52291 | 1196 ft | 133 kts | 57° |
| 2026-04-22 17:03 | 51.85499 | 0.53547 | 1206 ft | 132 kts | 57° |
| 2026-04-22 17:03 | 51.86002 | 0.54778 | 1208 ft | 132 kts | 57° |
| 2026-04-22 17:03 | 51.86509 | 0.56024 | 1224 ft | 132 kts | 57° |
| 2026-04-22 17:03 | 51.87013 | 0.57260 | 1211 ft | 132 kts | 57° |
| 2026-04-22 17:04 | 51.87520 | 0.58502 | 1207 ft | 132 kts | 57° |
| 2026-04-22 17:04 | 51.88027 | 0.59740 | 1204 ft | 132 kts | 57° |
| 2026-04-22 17:04 | 51.88525 | 0.60959 | 1292 ft | 124 kts | 56° |
| 2026-04-22 17:04 | 51.88987 | 0.62082 | 1251 ft | 117 kts | 54° |
| 2026-04-22 17:05 | 51.89454 | 0.63156 | 1164 ft | 117 kts | 53° |
| 2026-04-22 17:05 | 51.89978 | 0.64128 | 921 ft | 111 kts | 45° |
| 2026-04-22 17:05 | 51.90366 | 0.65114 | 737 ft | 93 kts | 60° |
| 2026-04-22 17:05 | 51.90646 | 0.65943 | 591 ft | 76 kts | 56° |
| 2026-04-22 17:06 | 51.90889 | 0.66665 | 457 ft | 69 kts | 57° |
| 2026-04-22 17:06 | 51.91082 | 0.67256 | 329 ft | 47 kts | 52° |
| 2026-04-22 17:06 | 51.91188 | 0.67551 | 269 ft | 18 kts | 62° |
| 2026-04-22 17:06 | 51.91242 | 0.67708 | 253 ft | 10 kts | 90° |
| 2026-04-22 17:07 | 51.91201 | 0.67694 | 254 ft | 9 kts | 251° |
| 2026-04-22 17:07 | 51.91189 | 0.67675 | 235 ft | 1 kts | 211° |
| 2026-04-22 17:07 | 51.91188 | 0.67676 | 229 ft | 0 kts | 217° |